createdAt,value
2018-07-19T00:00:04.949Z,17.10
2018-07-19T00:02:33.573Z,13.03
2018-07-19T00:05:02.202Z,15.63
2018-07-19T00:07:30.815Z,14.23
2018-07-19T00:09:59.529Z,14.10
2018-07-19T00:12:28.133Z,13.93
2018-07-19T00:14:56.749Z,13.10
2018-07-19T00:17:25.381Z,12.10
2018-07-19T00:19:54.017Z,12.50
2018-07-19T00:22:22.645Z,13.60
2018-07-19T00:24:51.294Z,13.07
2018-07-19T00:27:19.530Z,12.40
2018-07-19T00:29:48.144Z,11.50
2018-07-19T00:32:16.737Z,12.13
2018-07-19T00:34:45.322Z,11.50
2018-07-19T00:37:13.933Z,11.83
2018-07-19T00:39:42.578Z,12.30
2018-07-19T00:42:11.291Z,12.50
2018-07-19T00:44:39.880Z,13.43
2018-07-19T00:47:08.518Z,14.53
2018-07-19T00:49:37.107Z,14.67
2018-07-19T00:52:05.749Z,15.20
2018-07-19T00:54:34.348Z,14.90
2018-07-19T00:57:03.058Z,14.80
2018-07-19T00:59:31.649Z,15.33
2018-07-19T01:02:00.275Z,14.17
2018-07-19T01:04:28.877Z,14.50
2018-07-19T01:06:57.513Z,14.30
2018-07-19T01:09:26.105Z,16.33
2018-07-19T01:11:54.693Z,15.87
2018-07-19T01:14:23.322Z,16.77
2018-07-19T01:16:51.569Z,16.70
2018-07-19T01:19:20.231Z,15.33
2018-07-19T01:21:48.846Z,16.43
2018-07-19T01:24:17.585Z,15.87
2018-07-19T01:26:46.178Z,13.77
2018-07-19T01:29:14.786Z,15.50
2018-07-19T01:31:43.415Z,14.87
2018-07-19T01:34:12.021Z,17.60
2018-07-19T01:36:40.630Z,17.50
2018-07-19T01:39:10.366Z,20.53
2018-07-19T01:42:18.060Z,18.23
2018-07-19T01:44:46.671Z,20.70
2018-07-19T01:47:15.260Z,19.33
2018-07-19T01:49:44.801Z,20.13
2018-07-19T01:52:13.885Z,22.13
2018-07-19T01:54:42.549Z,20.80
2018-07-19T01:57:12.381Z,21.63
2018-07-19T01:59:41.717Z,21.20
2018-07-19T02:02:10.497Z,20.80
2018-07-19T02:04:39.061Z,20.77
2018-07-19T02:07:08.051Z,19.00
2018-07-19T02:09:36.700Z,21.70
2018-07-19T02:12:05.393Z,21.97
2018-07-19T02:14:33.989Z,21.07
2018-07-19T02:17:03.049Z,23.50
2018-07-19T02:19:31.703Z,20.37
2018-07-19T02:22:00.340Z,21.50
2018-07-19T02:24:28.944Z,24.53
2018-07-19T02:26:57.564Z,23.33
2018-07-19T02:29:26.157Z,24.40
2018-07-19T02:31:54.776Z,23.67
2018-07-19T02:34:23.377Z,24.83
2018-07-19T02:36:52.012Z,25.90
2018-07-19T02:39:20.665Z,22.63
2018-07-19T02:41:49.335Z,23.53
2018-07-19T02:44:17.946Z,25.27
2018-07-19T02:46:46.525Z,23.63
2018-07-19T02:49:15.153Z,23.67
2018-07-19T02:51:44.289Z,24.07
2018-07-19T02:54:13.203Z,25.00
2018-07-19T02:56:41.912Z,26.93
2018-07-19T02:59:10.545Z,25.83
2018-07-19T03:01:39.124Z,26.33
2018-07-19T03:04:07.808Z,25.80
2018-07-19T03:06:36.455Z,23.43
2018-07-19T03:09:06.842Z,26.27
2018-07-19T03:11:35.774Z,26.63
2018-07-19T03:14:04.432Z,26.80
2018-07-19T03:16:33.047Z,26.13
2018-07-19T03:19:01.685Z,22.33
2018-07-19T03:21:30.276Z,25.50
2018-07-19T03:23:58.888Z,27.33
2018-07-19T03:26:27.521Z,22.67
2018-07-19T03:28:56.093Z,28.60
2018-07-19T03:31:24.705Z,28.50
2018-07-19T03:33:53.284Z,30.50
2018-07-19T03:36:21.900Z,29.33
2018-07-19T03:38:50.505Z,31.07
2018-07-19T03:41:19.201Z,28.37
2018-07-19T03:43:47.781Z,26.93
2018-07-19T03:46:16.385Z,26.90
2018-07-19T03:48:45.110Z,27.10
2018-07-19T03:51:13.801Z,26.40
2018-07-19T03:53:42.417Z,26.70
2018-07-19T03:56:11.057Z,18.97
2018-07-19T03:58:39.665Z,24.67
2018-07-19T04:01:08.269Z,25.67
2018-07-19T04:03:36.885Z,20.60
2018-07-19T04:06:05.588Z,26.53
2018-07-19T04:08:34.214Z,22.87
2018-07-19T04:11:02.785Z,28.40
2018-07-19T04:13:31.388Z,25.50
2018-07-19T04:15:59.977Z,22.87
2018-07-19T04:18:28.651Z,24.10
2018-07-19T04:20:57.345Z,26.00
2018-07-19T04:23:25.990Z,18.53
2018-07-19T04:25:54.610Z,19.10
2018-07-19T04:28:23.217Z,17.83
2018-07-19T04:30:51.800Z,18.03
2018-07-19T04:33:20.413Z,19.87
2018-07-19T04:35:49.001Z,17.07
2018-07-19T04:38:17.654Z,16.17
2018-07-19T04:40:46.306Z,18.03
2018-07-19T04:43:14.980Z,22.03
2018-07-19T04:45:43.637Z,22.07
2018-07-19T04:48:12.318Z,20.33
2018-07-19T04:50:40.553Z,16.50
2018-07-19T04:53:09.186Z,16.20
2018-07-19T04:55:37.833Z,16.20
2018-07-19T04:58:06.561Z,17.50
2018-07-19T05:00:35.228Z,15.90
2018-07-19T05:03:04.101Z,15.73
2018-07-19T05:05:32.719Z,15.93
2018-07-19T05:08:01.345Z,15.17
2018-07-19T05:10:29.988Z,15.77
2018-07-19T05:12:58.646Z,14.10
2018-07-19T05:15:27.285Z,14.20
2018-07-19T05:17:55.916Z,13.83
2018-07-19T05:20:24.542Z,14.57
2018-07-19T05:22:53.231Z,14.33
2018-07-19T05:25:21.860Z,14.23
2018-07-19T05:27:50.503Z,14.37
2018-07-19T05:30:19.153Z,13.13
2018-07-19T05:32:47.782Z,13.27
2018-07-19T05:35:16.404Z,12.77
2018-07-19T05:37:45.056Z,13.53
2018-07-19T05:40:13.683Z,13.27
2018-07-19T05:42:42.369Z,13.70
2018-07-19T05:45:10.973Z,13.27
2018-07-19T05:47:39.573Z,13.60
2018-07-19T05:50:08.217Z,12.67
2018-07-19T05:52:36.834Z,13.30
2018-07-19T05:55:05.525Z,13.23
2018-07-19T05:57:34.096Z,12.67
2018-07-19T06:00:02.791Z,12.67
2018-07-19T06:02:31.408Z,12.90
2018-07-19T06:05:00.072Z,13.17
2018-07-19T06:07:28.687Z,13.87
2018-07-19T06:09:57.325Z,13.63
2018-07-19T06:12:25.925Z,13.80
2018-07-19T06:14:54.552Z,13.13
2018-07-19T06:17:23.221Z,12.90
2018-07-19T06:19:51.936Z,14.63
2018-07-19T06:22:20.554Z,15.03
2018-07-19T06:24:49.193Z,13.07
2018-07-19T06:27:17.828Z,14.23
2018-07-19T06:29:46.434Z,15.03
2018-07-19T06:32:15.056Z,14.90
2018-07-19T06:34:43.669Z,15.93
2018-07-19T06:37:12.296Z,16.10
2018-07-19T06:39:40.982Z,17.40
2018-07-19T06:42:09.658Z,15.43
2018-07-19T06:44:38.301Z,17.70
2018-07-19T06:47:06.948Z,16.73
2018-07-19T06:49:35.522Z,16.07
2018-07-19T06:52:04.233Z,17.40
2018-07-19T06:54:32.858Z,18.07
2018-07-19T06:57:01.563Z,16.83
2018-07-19T06:59:30.174Z,15.50
2018-07-19T07:01:58.767Z,14.87
2018-07-19T07:04:27.397Z,14.67
2018-07-19T07:06:56.001Z,16.13
2018-07-19T07:09:24.613Z,15.30
2018-07-19T07:11:53.214Z,14.57
2018-07-19T07:14:21.941Z,13.73
2018-07-19T07:16:50.564Z,13.40
2018-07-19T07:19:19.233Z,13.30
2018-07-19T07:21:47.857Z,12.97
2018-07-19T07:24:16.596Z,13.33
2018-07-19T07:26:45.225Z,13.47
2018-07-19T07:29:13.925Z,13.40
2018-07-19T07:31:42.851Z,12.83
2018-07-19T07:34:11.488Z,12.90
2018-07-19T07:36:40.097Z,12.13
2018-07-19T07:39:09.869Z,13.23
2018-07-19T07:41:38.612Z,12.13
2018-07-19T07:44:07.288Z,13.10
2018-07-19T07:46:35.874Z,12.87
2018-07-19T07:49:04.575Z,13.70
2018-07-19T07:51:33.211Z,14.93
2018-07-19T07:54:01.831Z,14.37
2018-07-19T07:56:31.433Z,14.83
2018-07-19T07:59:00.015Z,14.83
2018-07-19T08:01:28.645Z,14.70
2018-07-19T08:03:57.290Z,13.93
2018-07-19T08:06:25.966Z,14.53
2018-07-19T08:08:54.599Z,13.70
2018-07-19T08:11:23.172Z,13.97
2018-07-19T08:13:51.829Z,14.23
2018-07-19T08:16:20.442Z,14.17
2018-07-19T08:18:49.138Z,13.40
2018-07-19T08:21:17.807Z,14.90
2018-07-19T08:23:47.467Z,15.03
2018-07-19T08:26:16.172Z,15.03
2018-07-19T08:28:44.838Z,13.40
2018-07-19T08:31:13.474Z,14.97
2018-07-19T08:33:42.090Z,14.60
2018-07-19T08:36:10.697Z,14.90
2018-07-19T08:38:39.321Z,13.80
2018-07-19T08:41:07.929Z,15.27
2018-07-19T08:43:36.565Z,14.70
2018-07-19T08:46:05.287Z,14.93
2018-07-19T08:48:33.874Z,15.17
2018-07-19T08:51:02.546Z,16.30
2018-07-19T08:53:31.149Z,16.20
2018-07-19T08:58:28.448Z,17.93
2018-07-19T09:00:57.145Z,16.57
2018-07-19T09:03:25.817Z,15.33
2018-07-19T09:05:54.429Z,16.33
2018-07-19T09:08:23.072Z,16.33
2018-07-19T09:10:51.685Z,16.63
2018-07-19T09:13:20.289Z,17.73
2018-07-19T09:15:48.925Z,16.07
2018-07-19T09:18:17.525Z,16.07
2018-07-19T09:20:46.251Z,15.60
2018-07-19T09:23:14.918Z,15.05
2018-07-19T09:25:43.552Z,15.00
2018-07-19T09:28:12.189Z,13.48
2018-07-19T09:30:41.549Z,13.40
2018-07-19T09:33:10.172Z,13.25
2018-07-19T09:35:38.776Z,15.18
2018-07-19T09:38:07.400Z,13.45
2018-07-19T09:40:36.081Z,13.83
2018-07-19T09:43:04.816Z,14.13
2018-07-19T09:45:33.490Z,14.58
2018-07-19T09:48:02.186Z,14.45
2018-07-19T09:50:30.800Z,13.93
2018-07-19T09:52:59.428Z,14.90
2018-07-19T09:55:28.013Z,14.68
2018-07-19T09:57:56.642Z,15.03
2018-07-19T10:00:30.558Z,14.25
2018-07-19T10:02:59.196Z,12.45
2018-07-19T10:05:27.804Z,13.45
2018-07-19T10:07:56.473Z,13.95
2018-07-19T10:10:25.082Z,13.65
2018-07-19T10:12:53.946Z,14.53
2018-07-19T10:15:22.599Z,13.15
2018-07-19T10:17:51.273Z,12.73
2018-07-19T10:20:19.549Z,12.07
2018-07-19T10:22:48.184Z,13.30
2018-07-19T10:25:17.594Z,13.95
2018-07-19T10:27:46.230Z,13.48
2018-07-19T10:30:14.872Z,13.53
2018-07-19T10:32:43.507Z,13.85
2018-07-19T10:35:12.126Z,15.15
2018-07-19T10:37:40.773Z,15.18
2018-07-19T10:40:09.362Z,15.03
2018-07-19T10:42:37.969Z,14.40
2018-07-19T10:45:06.703Z,14.73
2018-07-19T10:47:35.324Z,14.00
2018-07-19T10:50:04.030Z,15.25
2018-07-19T10:52:32.621Z,13.18
2018-07-19T10:55:01.235Z,13.80
2018-07-19T10:57:29.880Z,12.23
2018-07-19T10:59:58.435Z,11.78
2018-07-19T11:02:27.045Z,12.15
2018-07-19T11:04:55.613Z,14.25
2018-07-19T11:07:24.213Z,12.40
2018-07-19T11:09:52.831Z,12.33
2018-07-19T11:12:21.451Z,13.05
2018-07-19T11:14:50.053Z,13.32
2018-07-19T11:17:18.651Z,14.47
2018-07-19T11:19:47.235Z,15.40
2018-07-19T11:22:15.830Z,15.72
2018-07-19T11:24:44.454Z,16.10
2018-07-19T11:27:13.027Z,15.68
2018-07-19T11:29:41.645Z,15.83
2018-07-19T11:32:10.224Z,15.95
2018-07-19T11:34:38.825Z,14.83
2018-07-19T11:37:07.452Z,14.23
2018-07-19T11:39:36.058Z,15.13
2018-07-19T11:42:04.655Z,15.18
2018-07-19T11:44:33.281Z,14.63
2018-07-19T11:47:01.871Z,13.90
2018-07-19T11:49:30.144Z,14.98
2018-07-19T11:51:58.706Z,14.60
2018-07-19T11:54:27.321Z,15.63
2018-07-19T11:56:55.917Z,16.45
2018-07-19T11:59:24.550Z,15.72
2018-07-19T12:01:53.195Z,13.50
2018-07-19T12:04:21.808Z,11.68
2018-07-19T12:06:50.393Z,11.80
2018-07-19T12:09:18.976Z,11.00
2018-07-19T12:11:47.615Z,11.57
2018-07-19T12:14:16.195Z,13.13
2018-07-19T12:16:44.813Z,12.58
2018-07-19T12:19:13.413Z,13.00
2018-07-19T12:21:42.153Z,12.40
2018-07-19T12:24:10.772Z,12.95
2018-07-19T12:26:39.437Z,12.20
2018-07-19T12:29:08.033Z,12.55
2018-07-19T12:31:36.626Z,12.45
2018-07-19T12:34:08.320Z,12.90
2018-07-19T12:36:36.945Z,15.45
2018-07-19T12:39:08.657Z,14.50
2018-07-19T12:41:37.290Z,15.28
2018-07-19T12:44:05.870Z,15.35
2018-07-19T12:46:34.497Z,16.02
2018-07-19T12:49:03.103Z,15.00
2018-07-19T12:51:31.756Z,15.80
2018-07-19T12:54:00.353Z,13.15
2018-07-19T12:56:28.985Z,13.90
2018-07-19T12:58:57.864Z,14.20
2018-07-19T13:01:26.425Z,13.58
2018-07-19T13:03:55.096Z,12.50
2018-07-19T13:06:23.733Z,12.55
2018-07-19T13:08:52.549Z,12.50
2018-07-19T13:11:21.125Z,13.13
2018-07-19T13:13:49.443Z,13.03
2018-07-19T13:16:18.631Z,13.83
2018-07-19T13:18:47.297Z,14.47
2018-07-19T13:21:16.197Z,12.73
2018-07-19T13:23:45.162Z,12.50
2018-07-19T13:26:13.801Z,12.18
2018-07-19T13:28:42.431Z,11.68
2018-07-19T13:31:10.649Z,11.10
2018-07-19T13:33:39.233Z,11.93
2018-07-19T13:36:07.953Z,12.90
2018-07-19T13:38:37.416Z,12.98
2018-07-19T13:41:06.013Z,13.43
2018-07-19T13:43:34.686Z,14.20
2018-07-19T13:46:03.324Z,14.10
2018-07-19T13:48:31.907Z,14.80
2018-07-19T13:51:00.564Z,14.33
2018-07-19T13:53:41.078Z,12.75
2018-07-19T13:56:10.142Z,12.82
2018-07-19T13:58:39.216Z,11.15
2018-07-19T14:01:07.829Z,12.07
2018-07-19T14:03:36.412Z,12.50
2018-07-19T14:06:05.118Z,12.47
2018-07-19T14:08:33.685Z,12.15
2018-07-19T14:11:02.282Z,12.37
2018-07-19T14:13:30.946Z,13.25
2018-07-19T14:15:59.532Z,12.37
2018-07-19T14:18:28.221Z,12.73
2018-07-19T14:20:56.823Z,12.47
2018-07-19T14:23:25.438Z,12.93
2018-07-19T14:25:54.010Z,13.45
2018-07-19T14:28:22.593Z,12.53
2018-07-19T14:30:51.191Z,13.55
2018-07-19T14:33:19.805Z,13.93
2018-07-19T14:35:48.386Z,13.58
2018-07-19T14:38:17.070Z,13.68
2018-07-19T14:40:46.018Z,13.08
2018-07-19T14:43:14.633Z,13.22
2018-07-19T14:45:43.213Z,12.45
2018-07-19T14:48:12.090Z,12.20
2018-07-19T14:50:40.662Z,11.95
2018-07-19T14:53:11.404Z,11.70
2018-07-19T14:55:40.196Z,12.53
2018-07-19T14:58:08.921Z,12.30
2018-07-19T15:00:37.557Z,12.55
2018-07-19T15:03:06.161Z,12.88
2018-07-19T15:05:34.790Z,12.40
2018-07-19T15:08:03.416Z,13.05
2018-07-19T15:10:32.025Z,12.80
2018-07-19T15:13:00.692Z,12.43
2018-07-19T15:15:29.349Z,12.90
2018-07-19T15:17:57.934Z,13.40
2018-07-19T15:20:26.525Z,12.45
2018-07-19T15:22:55.145Z,14.03
2018-07-19T15:25:23.790Z,15.10
2018-07-19T15:27:52.455Z,14.98
2018-07-19T15:30:21.873Z,13.75
2018-07-19T15:32:50.729Z,14.23
2018-07-19T15:35:19.413Z,15.00
2018-07-19T15:37:48.049Z,14.35
2018-07-19T15:40:16.702Z,15.05
2018-07-19T15:42:45.286Z,14.25
2018-07-19T15:45:13.924Z,13.55
2018-07-19T15:47:42.532Z,14.58
2018-07-19T15:50:11.135Z,15.40
2018-07-19T15:52:39.745Z,14.65
2018-07-19T15:55:07.983Z,13.83
2018-07-19T15:57:36.589Z,14.30
2018-07-19T16:00:05.974Z,14.30
2018-07-19T16:02:34.617Z,14.75
2018-07-19T16:05:03.385Z,14.87
2018-07-19T16:07:31.953Z,15.78
2018-07-19T16:10:00.543Z,14.47
2018-07-19T16:12:28.804Z,15.20
2018-07-19T16:14:57.505Z,15.68
2018-07-19T16:17:26.138Z,13.32
2018-07-19T16:19:54.879Z,14.43
2018-07-19T16:22:23.545Z,14.95
2018-07-19T16:24:52.239Z,13.38
2018-07-19T16:27:20.861Z,12.70
2018-07-19T16:29:49.465Z,12.80
2018-07-19T16:32:18.082Z,13.30
2018-07-19T16:34:46.689Z,12.90
2018-07-19T16:37:15.277Z,13.75
2018-07-19T16:39:43.893Z,13.20
2018-07-19T16:42:12.504Z,13.72
2018-07-19T16:44:41.092Z,14.55
2018-07-19T16:47:09.697Z,14.33
2018-07-19T16:49:38.305Z,14.23
2018-07-19T16:52:07.021Z,14.45
2018-07-19T16:54:35.785Z,12.50
2018-07-19T16:57:04.469Z,12.63
2018-07-19T16:59:33.104Z,12.98
2018-07-19T17:02:01.701Z,13.60
2018-07-19T17:04:30.282Z,15.48
2018-07-19T17:06:58.905Z,15.08
2018-07-19T17:09:27.486Z,16.02
2018-07-19T17:11:56.134Z,17.67
2018-07-19T17:14:24.710Z,28.30
2018-07-19T17:16:53.365Z,21.70
2018-07-19T17:19:21.965Z,21.30
2018-07-19T17:21:50.542Z,19.87
2018-07-19T17:24:19.174Z,18.82
2018-07-19T17:26:47.749Z,18.87
2018-07-19T17:29:16.349Z,14.05
2018-07-19T17:31:44.921Z,13.60
2018-07-19T17:34:13.710Z,16.45
2018-07-19T17:36:42.268Z,14.80
2018-07-19T17:39:12.287Z,16.42
2018-07-19T17:41:41.594Z,13.78
2018-07-19T17:44:10.204Z,14.53
2018-07-19T17:46:38.865Z,15.15
2018-07-19T17:49:07.591Z,15.72
2018-07-19T17:51:36.308Z,14.33
2018-07-19T17:54:04.941Z,14.68
2018-07-19T17:56:33.532Z,14.15
2018-07-19T17:59:02.110Z,13.45
2018-07-19T18:01:30.774Z,13.60
2018-07-19T18:03:59.368Z,14.28
2018-07-19T18:06:28.063Z,13.22
2018-07-19T18:08:56.671Z,12.93
2018-07-19T18:11:25.289Z,12.68
2018-07-19T18:13:55.466Z,15.35
2018-07-19T18:16:24.329Z,13.03
2018-07-19T18:18:52.977Z,13.08
2018-07-19T18:21:21.625Z,14.47
2018-07-19T18:23:50.304Z,13.30
2018-07-19T18:26:18.917Z,13.80
2018-07-19T18:28:47.505Z,14.60
2018-07-19T18:31:16.185Z,14.35
2018-07-19T18:33:44.849Z,13.83
2018-07-19T18:36:13.538Z,14.23
2018-07-19T18:38:42.233Z,14.40
2018-07-19T18:41:10.858Z,15.08
2018-07-19T18:43:39.472Z,14.73
2018-07-19T18:46:08.042Z,15.53
2018-07-19T18:48:36.687Z,16.12
2018-07-19T18:51:05.273Z,16.00
2018-07-19T18:53:33.866Z,15.63
2018-07-19T18:56:02.454Z,14.47
2018-07-19T18:58:31.066Z,15.60
2018-07-19T19:00:59.727Z,17.10
2018-07-19T19:03:28.321Z,18.43
2018-07-19T19:05:56.939Z,18.00
2018-07-19T19:08:25.566Z,17.43
2018-07-19T19:10:54.137Z,18.63
2018-07-19T19:13:22.733Z,19.43
2018-07-19T19:15:51.337Z,18.23
2018-07-19T19:18:20.356Z,17.50
2018-07-19T19:20:48.954Z,18.63
2018-07-19T19:23:17.612Z,16.57
2018-07-19T19:25:46.231Z,16.83
2018-07-19T19:28:14.815Z,17.40
2018-07-19T19:30:43.449Z,18.10
2018-07-19T19:33:12.062Z,16.63
2018-07-19T19:35:40.693Z,18.07
2018-07-19T19:38:09.585Z,19.90
2018-07-19T19:40:38.318Z,19.43
2018-07-19T19:43:07.102Z,17.70
2018-07-19T19:45:35.817Z,17.90
2018-07-19T19:48:04.616Z,17.63
2018-07-19T19:50:33.263Z,17.53
2018-07-19T19:53:01.853Z,17.17
2018-07-19T19:55:30.456Z,17.50
2018-07-19T19:57:59.061Z,16.73
2018-07-19T20:00:27.645Z,17.17
2018-07-19T20:02:56.313Z,16.10
2018-07-19T20:05:24.903Z,16.13
2018-07-19T20:07:53.514Z,17.00
2018-07-19T20:10:22.093Z,16.23
2018-07-19T20:12:50.785Z,17.20
2018-07-19T20:15:19.389Z,16.67
2018-07-19T20:17:48.005Z,16.57
2018-07-19T20:20:16.626Z,16.30
2018-07-19T20:22:45.241Z,16.43
2018-07-19T20:25:14.181Z,17.33
2018-07-19T20:27:42.831Z,16.93
2018-07-19T20:30:11.426Z,16.60
2018-07-19T20:32:40.033Z,18.10
2018-07-19T20:35:08.615Z,16.80
2018-07-19T20:37:37.290Z,16.43
2018-07-19T20:40:05.880Z,17.10
2018-07-19T20:42:34.477Z,18.90
2018-07-19T20:45:03.080Z,16.50
2018-07-19T20:47:31.674Z,17.20
2018-07-19T20:50:00.274Z,15.30
2018-07-19T20:52:28.837Z,16.33
2018-07-19T20:54:57.496Z,16.37
2018-07-19T20:57:26.117Z,15.57
2018-07-19T20:59:54.769Z,15.43
2018-07-19T21:02:23.336Z,15.67
2018-07-19T21:04:51.950Z,15.80
2018-07-19T21:07:20.733Z,15.77
2018-07-19T21:09:49.342Z,15.00
2018-07-19T21:12:17.929Z,14.70
2018-07-19T21:14:46.509Z,14.40
2018-07-19T21:17:15.177Z,15.93
2018-07-19T21:19:43.741Z,16.77
2018-07-19T21:22:12.361Z,16.30
2018-07-19T21:24:40.953Z,15.60
2018-07-19T21:27:09.552Z,19.40
2018-07-19T21:29:38.120Z,15.83
2018-07-19T21:32:06.793Z,16.50
2018-07-19T21:34:35.414Z,17.67
2018-07-19T21:37:04.066Z,15.67
2018-07-19T21:39:32.659Z,15.43
2018-07-19T21:42:01.238Z,16.30
2018-07-19T21:44:29.806Z,16.80
2018-07-19T21:46:58.383Z,16.97
2018-07-19T21:49:26.952Z,16.50
2018-07-19T21:51:55.581Z,17.70
2018-07-19T21:54:24.168Z,18.03
2018-07-19T21:56:52.733Z,17.90
2018-07-19T21:59:21.343Z,16.90
2018-07-19T22:01:49.905Z,17.47
2018-07-19T22:04:20.277Z,16.97
2018-07-19T22:06:53.841Z,18.30
2018-07-19T22:09:23.649Z,18.17
2018-07-19T22:11:52.672Z,17.80
2018-07-19T22:14:21.278Z,17.83
2018-07-19T22:16:49.888Z,19.40
2018-07-19T22:19:18.497Z,18.33
2018-07-19T22:21:47.053Z,17.03
2018-07-19T22:24:15.666Z,16.63
2018-07-19T22:26:44.297Z,18.30
2018-07-19T22:29:12.861Z,19.57
2018-07-19T22:31:41.482Z,18.63
2018-07-19T22:34:10.078Z,19.30
2018-07-19T22:36:38.661Z,17.80
2018-07-19T22:39:09.955Z,20.90
2018-07-19T22:41:38.652Z,21.60
2018-07-19T22:44:07.296Z,17.77
2018-07-19T22:46:35.992Z,21.93
2018-07-19T22:49:04.565Z,19.23
2018-07-19T22:51:33.157Z,16.93
2018-07-19T22:54:01.739Z,17.83
2018-07-19T22:56:30.363Z,20.13
2018-07-19T22:58:58.952Z,20.53
2018-07-19T23:01:27.605Z,19.37
2018-07-19T23:03:56.187Z,20.07
2018-07-19T23:06:25.395Z,16.70
2018-07-19T23:08:54.030Z,18.47
2018-07-19T23:11:22.620Z,17.23
2018-07-19T23:13:51.209Z,18.57
2018-07-19T23:16:19.781Z,17.37
2018-07-19T23:18:48.382Z,18.27
2018-07-19T23:21:16.953Z,18.47
2018-07-19T23:23:45.565Z,16.60
2018-07-19T23:26:14.138Z,20.03
2018-07-19T23:28:42.822Z,17.27
2018-07-19T23:31:11.456Z,17.67
2018-07-19T23:33:40.110Z,18.73
2018-07-19T23:36:14.829Z,19.67
2018-07-19T23:38:47.924Z,18.23
2018-07-19T23:41:20.694Z,19.83
2018-07-19T23:43:52.924Z,18.27
2018-07-19T23:46:27.114Z,18.47
2018-07-19T23:48:56.351Z,18.93
2018-07-19T23:51:24.948Z,19.03
2018-07-19T23:53:53.513Z,20.03
2018-07-19T23:56:22.092Z,20.40
2018-07-19T23:58:50.670Z,18.43
